Airfield :
LOGIN :

Register | Disclaimer

   EN    FR    IT 

 










Legend :    VFR   Marginal VFR   IFR   Intensive IFR   Very Intensive IFR
Visi :
Ceiling :
>= 8 km
>= 3000ft
5 to 8 km
1000 to 3000 ft
1500m to 5 km
500 to 1000 ft
800 to 1500m
200 to 500 ft
< 800m
< 200 ft
Symbols :   Thunderstorms  Fog  Heavy snow  Heavy precipitations  Wind > 20 kt
SIGMETs :     Misc.  Thunderstorms  Icing  Turbulence  Mountain Waves  Volcanic Ashes







- Airport Elevation : 46 ft
- IATA code : SNN


EINN - Shannon

CURRENT METAR :
  • 191500Z 27011KT 210V320 9999 FEW040 SCT240 19/08 Q1020 NOSIG

EXPIRED METARs :
  • 191400Z 27010KT 9999 BKN042 19/08 Q1020 NOSIG
  • 191330Z 25007KT 200V300 9999 FEW035 SCT044 19/08 Q1020 NOSIG
  • 191300Z 20008KT 9999 FEW030 SCT044 18/07 Q1020 NOSIG
  • 191230Z 30006KT 140V330 9999 FEW035 BKN044 19/07 Q1021 NOSIG

TAF TAF EINN
Valid from the 19 at 12:00 until the 20 at 12:00 UTC


191100Z 1912/2012 26007KT 9999 FEW020 BKN040
BECMG 1921/1924 21007KT -RA BKN012
TEMPO 2000/2009 3000 -RADZ BR BKN006
BECMG 2008/2010 28008KT
BECMG 2010/2012 SCT012 BKN020
No reported NOTAMs for that airfield.



MET'MAP, your aeronautical weather chart ! - Copyright ORBIFLY December 2007 - Disclaimer

ORBIFLY MET'MAP TEAM :

Programming & Development : Alexandra Zaïnal
Concept & Development : Baudouin d'Aumeries
Co-Development & Prog : Marc-Olivier Méhu
Technical & hardware support : Manuel Goepfert

Contact : metmap@orbifly.com




SOURCES & CREDITS :

   NOAA